sensor_id;sensor_type;location;lat;lon;timestamp;pressure;altitude;pressure_sealevel;temperature;humidity
47366;BME280;33105;47.964;7.982;2023-02-19T00:00:41;97432.69;;;9.82;68.71
47366;BME280;33105;47.964;7.982;2023-02-19T00:03:47;97444.88;;;9.92;67.34
47366;BME280;33105;47.964;7.982;2023-02-19T00:06:48;97432.03;;;9.92;67.60
47366;BME280;33105;47.964;7.982;2023-02-19T00:09:50;97437.75;;;9.90;67.71
47366;BME280;33105;47.964;7.982;2023-02-19T00:12:51;97437.91;;;9.84;67.39
47366;BME280;33105;47.964;7.982;2023-02-19T00:15:52;97436.13;;;9.78;67.84
47366;BME280;33105;47.964;7.982;2023-02-19T00:18:55;97442.19;;;9.80;67.63
47366;BME280;33105;47.964;7.982;2023-02-19T00:21:57;97435.16;;;9.84;67.30
47366;BME280;33105;47.964;7.982;2023-02-19T00:24:58;97430.44;;;9.68;67.96
47366;BME280;33105;47.964;7.982;2023-02-19T00:27:59;97443.84;;;9.81;67.73
47366;BME280;33105;47.964;7.982;2023-02-19T00:31:18;97427.63;;;9.63;68.11
47366;BME280;33105;47.964;7.982;2023-02-19T00:34:19;97434.97;;;9.62;67.51
47366;BME280;33105;47.964;7.982;2023-02-19T00:37:21;97427.00;;;9.72;67.84
47366;BME280;33105;47.964;7.982;2023-02-19T00:40:22;97426.63;;;9.69;67.47
47366;BME280;33105;47.964;7.982;2023-02-19T00:43:27;97418.59;;;9.62;67.67
47366;BME280;33105;47.964;7.982;2023-02-19T00:49:33;97428.44;;;9.51;67.95
47366;BME280;33105;47.964;7.982;2023-02-19T00:52:35;97427.84;;;9.49;67.82
47366;BME280;33105;47.964;7.982;2023-02-19T00:55:36;97418.13;;;9.53;68.02
47366;BME280;33105;47.964;7.982;2023-02-19T00:58:37;97403.91;;;9.51;68.24
47366;BME280;33105;47.964;7.982;2023-02-19T01:01:39;97400.69;;;9.43;68.63
47366;BME280;33105;47.964;7.982;2023-02-19T01:04:40;97402.84;;;9.52;68.66
47366;BME280;33105;47.964;7.982;2023-02-19T01:07:42;97400.59;;;9.49;68.88
47366;BME280;33105;47.964;7.982;2023-02-19T01:10:43;97405.22;;;9.61;68.74
47366;BME280;33105;47.964;7.982;2023-02-19T01:13:44;97409.59;;;9.62;68.44
47366;BME280;33105;47.964;7.982;2023-02-19T01:16:45;97392.88;;;9.58;68.82
47366;BME280;33105;47.964;7.982;2023-02-19T01:19:47;97389.91;;;9.60;68.32
47366;BME280;33105;47.964;7.982;2023-02-19T01:22:48;97388.63;;;9.39;69.59
47366;BME280;33105;47.964;7.982;2023-02-19T01:25:49;97395.28;;;9.31;69.60
47366;BME280;33105;47.964;7.982;2023-02-19T01:28:51;97386.00;;;9.44;68.86
47366;BME280;33105;47.964;7.982;2023-02-19T01:31:52;97408.03;;;9.66;68.46
47366;BME280;33105;47.964;7.982;2023-02-19T01:34:54;97396.81;;;9.27;69.12
47366;BME280;33105;47.964;7.982;2023-02-19T01:37:55;97388.53;;;9.34;69.81
47366;BME280;33105;47.964;7.982;2023-02-19T01:41:02;97371.22;;;9.28;69.61
47366;BME280;33105;47.964;7.982;2023-02-19T01:47:12;97358.41;;;9.17;69.86
47366;BME280;33105;47.964;7.982;2023-02-19T01:50:15;97362.44;;;9.26;69.34
47366;BME280;33105;47.964;7.982;2023-02-19T01:53:20;97349.28;;;9.35;69.79
47366;BME280;33105;47.964;7.982;2023-02-19T01:56:23;97348.22;;;9.36;69.93
47366;BME280;33105;47.964;7.982;2023-02-19T01:59:25;97360.06;;;9.18;69.73
47366;BME280;33105;47.964;7.982;2023-02-19T02:02:27;97363.81;;;9.40;69.38
47366;BME280;33105;47.964;7.982;2023-02-19T02:08:49;97354.38;;;9.19;70.05
47366;BME280;33105;47.964;7.982;2023-02-19T02:12:10;97346.09;;;9.14;70.17
47366;BME280;33105;47.964;7.982;2023-02-19T02:15:14;97351.06;;;9.29;69.79
47366;BME280;33105;47.964;7.982;2023-02-19T02:18:37;97367.56;;;9.11;70.43
47366;BME280;33105;47.964;7.982;2023-02-19T02:21:48;97368.16;;;9.13;69.78
47366;BME280;33105;47.964;7.982;2023-02-19T02:31:53;97364.72;;;9.06;69.93
47366;BME280;33105;47.964;7.982;2023-02-19T02:35:00;97351.91;;;9.06;70.03
47366;BME280;33105;47.964;7.982;2023-02-19T02:38:06;97352.03;;;9.00;70.73
47366;BME280;33105;47.964;7.982;2023-02-19T02:41:12;97348.81;;;9.03;69.98
47366;BME280;33105;47.964;7.982;2023-02-19T02:44:14;97349.91;;;9.02;69.99
47366;BME280;33105;47.964;7.982;2023-02-19T02:47:16;97360.78;;;9.02;69.99
47366;BME280;33105;47.964;7.982;2023-02-19T02:50:53;97351.31;;;8.93;70.24
47366;BME280;33105;47.964;7.982;2023-02-19T02:54:18;97351.91;;;8.95;69.99
47366;BME280;33105;47.964;7.982;2023-02-19T02:57:42;97369.31;;;8.94;70.94
47366;BME280;33105;47.964;7.982;2023-02-19T03:00:48;97386.16;;;8.91;71.01
47366;BME280;33105;47.964;7.982;2023-02-19T03:04:14;97394.31;;;8.79;73.76
47366;BME280;33105;47.964;7.982;2023-02-19T03:07:18;97364.56;;;8.54;74.74
47366;BME280;33105;47.964;7.982;2023-02-19T03:10:29;97363.34;;;8.50;75.00
47366;BME280;33105;47.964;7.982;2023-02-19T03:13:36;97381.59;;;8.49;76.30
47366;BME280;33105;47.964;7.982;2023-02-19T03:17:08;97379.69;;;8.20;77.95
47366;BME280;33105;47.964;7.982;2023-02-19T03:20:35;97356.75;;;8.16;78.49
47366;BME280;33105;47.964;7.982;2023-02-19T03:23:40;97360.97;;;8.12;79.22
47366;BME280;33105;47.964;7.982;2023-02-19T03:27:02;97340.16;;;8.17;78.42
47366;BME280;33105;47.964;7.982;2023-02-19T03:30:18;97326.09;;;8.20;76.67
47366;BME280;33105;47.964;7.982;2023-02-19T03:33:26;97322.00;;;8.41;75.56
47366;BME280;33105;47.964;7.982;2023-02-19T03:36:34;97331.88;;;8.54;74.78
47366;BME280;33105;47.964;7.982;2023-02-19T03:39:38;97351.16;;;8.52;74.81
47366;BME280;33105;47.964;7.982;2023-02-19T03:49:24;97366.72;;;8.75;74.16
47366;BME280;33105;47.964;7.982;2023-02-19T03:52:38;97349.88;;;8.55;75.30
47366;BME280;33105;47.964;7.982;2023-02-19T04:01:57;97347.84;;;8.50;75.08
47366;BME280;33105;47.964;7.982;2023-02-19T04:05:12;97358.88;;;8.67;74.06
47366;BME280;33105;47.964;7.982;2023-02-19T04:08:18;97346.56;;;8.76;73.08
47366;BME280;33105;47.964;7.982;2023-02-19T04:11:27;97343.63;;;8.78;72.98
47366;BME280;33105;47.964;7.982;2023-02-19T04:14:42;97354.88;;;8.81;72.70
47366;BME280;33105;47.964;7.982;2023-02-19T04:17:54;97361.84;;;8.66;73.65
47366;BME280;33105;47.964;7.982;2023-02-19T04:20:57;97343.34;;;8.68;73.40
47366;BME280;33105;47.964;7.982;2023-02-19T04:24:02;97345.25;;;8.67;73.05
47366;BME280;33105;47.964;7.982;2023-02-19T04:27:07;97333.66;;;8.60;73.61
47366;BME280;33105;47.964;7.982;2023-02-19T04:30:11;97330.34;;;8.58;73.33
47366;BME280;33105;47.964;7.982;2023-02-19T04:33:13;97336.16;;;8.73;71.98
47366;BME280;33105;47.964;7.982;2023-02-19T04:36:14;97339.09;;;8.72;71.64
47366;BME280;33105;47.964;7.982;2023-02-19T04:39:15;97319.66;;;8.68;71.89
47366;BME280;33105;47.964;7.982;2023-02-19T04:42:17;97328.34;;;8.77;70.80
47366;BME280;33105;47.964;7.982;2023-02-19T04:45:18;97332.34;;;8.74;71.25
47366;BME280;33105;47.964;7.982;2023-02-19T04:48:20;97328.81;;;8.85;70.82
47366;BME280;33105;47.964;7.982;2023-02-19T04:51:21;97341.72;;;8.78;71.00
47366;BME280;33105;47.964;7.982;2023-02-19T04:54:22;97332.22;;;8.69;71.82
47366;BME280;33105;47.964;7.982;2023-02-19T04:57:23;97344.56;;;8.83;71.41
47366;BME280;33105;47.964;7.982;2023-02-19T05:00:24;97339.25;;;8.89;71.32
47366;BME280;33105;47.964;7.982;2023-02-19T05:03:26;97347.28;;;8.83;71.89
47366;BME280;33105;47.964;7.982;2023-02-19T05:06:27;97341.94;;;8.77;72.32
47366;BME280;33105;47.964;7.982;2023-02-19T05:09:28;97345.50;;;8.66;72.71
47366;BME280;33105;47.964;7.982;2023-02-19T05:12:30;97354.38;;;8.73;72.70
47366;BME280;33105;47.964;7.982;2023-02-19T05:15:31;97344.91;;;8.75;72.39
47366;BME280;33105;47.964;7.982;2023-02-19T05:18:32;97349.63;;;8.68;72.40
47366;BME280;33105;47.964;7.982;2023-02-19T05:21:34;97377.69;;;8.69;72.92
47366;BME280;33105;47.964;7.982;2023-02-19T05:24:35;97372.13;;;8.52;73.22
47366;BME280;33105;47.964;7.982;2023-02-19T05:27:36;97379.81;;;8.55;72.84
47366;BME280;33105;47.964;7.982;2023-02-19T05:30:38;97382.56;;;8.55;72.80
47366;BME280;33105;47.964;7.982;2023-02-19T05:33:39;97400.56;;;8.56;73.18
47366;BME280;33105;47.964;7.982;2023-02-19T05:36:42;97390.22;;;8.46;73.61
47366;BME280;33105;47.964;7.982;2023-02-19T05:39:44;97397.31;;;8.47;73.41
47366;BME280;33105;47.964;7.982;2023-02-19T05:42:45;97398.16;;;8.48;73.51
47366;BME280;33105;47.964;7.982;2023-02-19T05:45:46;97416.28;;;8.54;73.62
47366;BME280;33105;47.964;7.982;2023-02-19T05:48:49;97394.13;;;8.39;74.12
47366;BME280;33105;47.964;7.982;2023-02-19T05:51:50;97404.63;;;8.17;75.88
47366;BME280;33105;47.964;7.982;2023-02-19T05:54:52;97400.03;;;8.17;76.22
47366;BME280;33105;47.964;7.982;2023-02-19T05:57:53;97403.13;;;8.21;76.09
47366;BME280;33105;47.964;7.982;2023-02-19T06:00:55;97419.38;;;8.28;76.18
47366;BME280;33105;47.964;7.982;2023-02-19T06:03:56;97417.03;;;8.31;75.83
47366;BME280;33105;47.964;7.982;2023-02-19T06:06:57;97392.81;;;8.11;77.29
47366;BME280;33105;47.964;7.982;2023-02-19T06:09:59;97406.56;;;8.16;77.18
47366;BME280;33105;47.964;7.982;2023-02-19T06:13:00;97406.78;;;8.15;77.79
47366;BME280;33105;47.964;7.982;2023-02-19T06:16:06;97417.56;;;7.92;78.62
47366;BME280;33105;47.964;7.982;2023-02-19T06:19:08;97423.88;;;8.04;78.53
47366;BME280;33105;47.964;7.982;2023-02-19T06:22:09;97431.25;;;7.85;79.99
47366;BME280;33105;47.964;7.982;2023-02-19T06:25:10;97448.91;;;7.94;79.21
47366;BME280;33105;47.964;7.982;2023-02-19T06:28:12;97442.34;;;8.02;78.74
47366;BME280;33105;47.964;7.982;2023-02-19T06:31:14;97438.81;;;7.83;79.92
47366;BME280;33105;47.964;7.982;2023-02-19T06:34:15;97447.50;;;7.92;79.55
47366;BME280;33105;47.964;7.982;2023-02-19T06:37:17;97447.13;;;7.88;79.33
47366;BME280;33105;47.964;7.982;2023-02-19T06:40:18;97440.59;;;8.07;78.86
47366;BME280;33105;47.964;7.982;2023-02-19T06:43:19;97450.50;;;8.02;78.90
47366;BME280;33105;47.964;7.982;2023-02-19T06:46:20;97472.78;;;7.92;79.29
47366;BME280;33105;47.964;7.982;2023-02-19T06:49:22;97470.06;;;7.74;80.64
47366;BME280;33105;47.964;7.982;2023-02-19T06:52:23;97457.69;;;7.78;80.65
47366;BME280;33105;47.964;7.982;2023-02-19T06:55:24;97469.41;;;7.78;80.68
47366;BME280;33105;47.964;7.982;2023-02-19T06:58:26;97476.44;;;7.86;80.29
47366;BME280;33105;47.964;7.982;2023-02-19T07:01:30;97481.50;;;7.82;80.92
47366;BME280;33105;47.964;7.982;2023-02-19T07:04:32;97469.34;;;7.85;80.35
47366;BME280;33105;47.964;7.982;2023-02-19T07:07:34;97485.72;;;7.97;80.54
47366;BME280;33105;47.964;7.982;2023-02-19T07:10:35;97493.75;;;7.92;80.64
47366;BME280;33105;47.964;7.982;2023-02-19T07:13:39;97492.28;;;8.07;79.78
47366;BME280;33105;47.964;7.982;2023-02-19T07:16:40;97493.81;;;8.03;79.28
47366;BME280;33105;47.964;7.982;2023-02-19T07:19:42;97501.09;;;8.21;78.65
47366;BME280;33105;47.964;7.982;2023-02-19T07:22:43;97512.72;;;8.16;79.28
47366;BME280;33105;47.964;7.982;2023-02-19T07:25:44;97524.94;;;8.26;78.40
47366;BME280;33105;47.964;7.982;2023-02-19T07:28:48;97527.50;;;8.02;78.81
47366;BME280;33105;47.964;7.982;2023-02-19T07:31:50;97530.16;;;8.27;78.12
47366;BME280;33105;47.964;7.982;2023-02-19T07:34:51;97530.63;;;8.06;78.83
47366;BME280;33105;47.964;7.982;2023-02-19T07:37:52;97532.34;;;8.00;78.78
47366;BME280;33105;47.964;7.982;2023-02-19T07:40:55;97548.53;;;8.13;78.82
47366;BME280;33105;47.964;7.982;2023-02-19T07:43:56;97547.91;;;8.30;78.83
47366;BME280;33105;47.964;7.982;2023-02-19T07:46:58;97559.63;;;7.94;79.52
47366;BME280;33105;47.964;7.982;2023-02-19T07:49:59;97569.31;;;8.08;79.29
47366;BME280;33105;47.964;7.982;2023-02-19T07:53:00;97563.81;;;8.14;78.24
47366;BME280;33105;47.964;7.982;2023-02-19T07:56:03;97576.81;;;8.31;78.72
47366;BME280;33105;47.964;7.982;2023-02-19T07:59:05;97572.59;;;8.16;78.09
47366;BME280;33105;47.964;7.982;2023-02-19T08:02:17;97579.63;;;8.42;77.96
47366;BME280;33105;47.964;7.982;2023-02-19T08:05:39;97586.88;;;8.30;78.51
47366;BME280;33105;47.964;7.982;2023-02-19T08:08:40;97584.84;;;8.44;77.11
47366;BME280;33105;47.964;7.982;2023-02-19T08:11:42;97585.19;;;8.29;78.28
47366;BME280;33105;47.964;7.982;2023-02-19T08:15:01;97601.16;;;8.26;78.02
47366;BME280;33105;47.964;7.982;2023-02-19T08:18:03;97600.47;;;8.12;78.81
47366;BME280;33105;47.964;7.982;2023-02-19T08:21:04;97605.16;;;8.23;77.91
47366;BME280;33105;47.964;7.982;2023-02-19T08:24:05;97605.69;;;8.13;77.94
47366;BME280;33105;47.964;7.982;2023-02-19T08:27:06;97609.47;;;8.31;78.54
47366;BME280;33105;47.964;7.982;2023-02-19T08:30:08;97619.50;;;8.37;78.24
47366;BME280;33105;47.964;7.982;2023-02-19T08:33:17;97619.91;;;8.15;78.68
47366;BME280;33105;47.964;7.982;2023-02-19T08:36:19;97618.28;;;7.90;79.85
47366;BME280;33105;47.964;7.982;2023-02-19T08:39:20;97622.53;;;8.04;79.39
47366;BME280;33105;47.964;7.982;2023-02-19T08:42:22;97638.84;;;8.04;79.66
47366;BME280;33105;47.964;7.982;2023-02-19T08:45:24;97631.75;;;8.03;79.93
47366;BME280;33105;47.964;7.982;2023-02-19T08:48:25;97625.03;;;8.05;79.46
47366;BME280;33105;47.964;7.982;2023-02-19T08:51:26;97632.75;;;8.08;79.41
47366;BME280;33105;47.964;7.982;2023-02-19T08:54:27;97626.53;;;8.19;78.67
47366;BME280;33105;47.964;7.982;2023-02-19T08:57:28;97636.53;;;8.26;78.45
47366;BME280;33105;47.964;7.982;2023-02-19T09:00:30;97637.13;;;8.34;78.19
47366;BME280;33105;47.964;7.982;2023-02-19T09:03:31;97646.03;;;8.41;77.82
47366;BME280;33105;47.964;7.982;2023-02-19T09:06:32;97638.38;;;8.50;77.83
47366;BME280;33105;47.964;7.982;2023-02-19T09:09:35;97647.09;;;8.59;77.07
47366;BME280;33105;47.964;7.982;2023-02-19T09:12:37;97649.03;;;8.70;77.32
47366;BME280;33105;47.964;7.982;2023-02-19T09:15:38;97654.97;;;8.48;76.36
47366;BME280;33105;47.964;7.982;2023-02-19T09:18:40;97656.69;;;8.43;75.87
47366;BME280;33105;47.964;7.982;2023-02-19T09:21:41;97653.66;;;8.69;74.86
47366;BME280;33105;47.964;7.982;2023-02-19T09:24:43;97656.03;;;9.14;74.96
47366;BME280;33105;47.964;7.982;2023-02-19T09:27:44;97657.91;;;8.83;73.40
47366;BME280;33105;47.964;7.982;2023-02-19T09:30:46;97660.16;;;9.16;73.58
47366;BME280;33105;47.964;7.982;2023-02-19T09:33:47;97661.81;;;9.06;73.32
47366;BME280;33105;47.964;7.982;2023-02-19T09:36:49;97663.84;;;9.10;73.43
47366;BME280;33105;47.964;7.982;2023-02-19T09:39:50;97656.44;;;9.29;73.58
47366;BME280;33105;47.964;7.982;2023-02-19T09:42:51;97653.16;;;9.39;72.17
47366;BME280;33105;47.964;7.982;2023-02-19T09:46:08;97643.59;;;9.18;71.83
47366;BME280;33105;47.964;7.982;2023-02-19T09:49:19;97640.16;;;8.93;73.69
47366;BME280;33105;47.964;7.982;2023-02-19T09:55:33;97629.97;;;8.70;73.70
47366;BME280;33105;47.964;7.982;2023-02-19T09:58:45;97638.63;;;8.97;72.09
47366;BME280;33105;47.964;7.982;2023-02-19T10:01:53;97630.63;;;9.43;71.38
47366;BME280;33105;47.964;7.982;2023-02-19T10:04:56;97620.44;;;9.39;69.66
47366;BME280;33105;47.964;7.982;2023-02-19T10:07:58;97634.69;;;9.52;69.29
47366;BME280;33105;47.964;7.982;2023-02-19T10:11:02;97640.53;;;9.68;68.88
47366;BME280;33105;47.964;7.982;2023-02-19T10:14:06;97640.94;;;10.53;65.81
47366;BME280;33105;47.964;7.982;2023-02-19T10:17:17;97636.66;;;9.87;66.31
47366;BME280;33105;47.964;7.982;2023-02-19T10:20:24;97634.59;;;9.71;64.63
47366;BME280;33105;47.964;7.982;2023-02-19T10:23:27;97636.53;;;9.82;65.51
47366;BME280;33105;47.964;7.982;2023-02-19T10:26:29;97631.41;;;9.97;65.09
47366;BME280;33105;47.964;7.982;2023-02-19T10:29:36;97629.00;;;9.66;65.36
47366;BME280;33105;47.964;7.982;2023-02-19T10:32:37;97641.63;;;9.78;64.33
47366;BME280;33105;47.964;7.982;2023-02-19T10:35:52;97640.84;;;10.25;64.11
47366;BME280;33105;47.964;7.982;2023-02-19T10:38:55;97647.09;;;10.60;62.50
47366;BME280;33105;47.964;7.982;2023-02-19T10:41:56;97644.16;;;10.38;62.37
47366;BME280;33105;47.964;7.982;2023-02-19T10:44:59;97659.66;;;11.41;62.02
47366;BME280;33105;47.964;7.982;2023-02-19T10:48:03;97662.34;;;10.33;61.73
47366;BME280;33105;47.964;7.982;2023-02-19T10:51:07;97665.88;;;10.10;63.08
47366;BME280;33105;47.964;7.982;2023-02-19T10:54:18;97670.34;;;10.74;63.32
47366;BME280;33105;47.964;7.982;2023-02-19T11:00:34;97670.50;;;10.21;64.00
47366;BME280;33105;47.964;7.982;2023-02-19T11:03:35;97681.78;;;10.13;63.86
47366;BME280;33105;47.964;7.982;2023-02-19T11:06:37;97683.34;;;10.20;64.12
47366;BME280;33105;47.964;7.982;2023-02-19T11:09:42;97687.03;;;10.38;63.36
47366;BME280;33105;47.964;7.982;2023-02-19T11:12:47;97683.41;;;10.02;63.18
47366;BME280;33105;47.964;7.982;2023-02-19T11:15:52;97678.38;;;9.76;64.79
47366;BME280;33105;47.964;7.982;2023-02-19T11:18:55;97676.63;;;9.81;65.72
47366;BME280;33105;47.964;7.982;2023-02-19T11:21:58;97683.50;;;9.84;64.77
47366;BME280;33105;47.964;7.982;2023-02-19T11:25:05;97680.09;;;9.47;65.34
47366;BME280;33105;47.964;7.982;2023-02-19T11:31:27;97683.78;;;9.52;64.10
47366;BME280;33105;47.964;7.982;2023-02-19T11:34:31;97678.06;;;9.84;65.84
47366;BME280;33105;47.964;7.982;2023-02-19T11:37:34;97677.41;;;9.59;65.58
47366;BME280;33105;47.964;7.982;2023-02-19T11:50:29;97656.97;;;9.19;68.22
47366;BME280;33105;47.964;7.982;2023-02-19T11:53:34;97652.09;;;9.40;68.03
47366;BME280;33105;47.964;7.982;2023-02-19T11:56:39;97650.06;;;9.35;67.85
47366;BME280;33105;47.964;7.982;2023-02-19T11:59:58;97648.13;;;9.24;67.20
47366;BME280;33105;47.964;7.982;2023-02-19T12:10:37;97640.53;;;9.26;67.31
47366;BME280;33105;47.964;7.982;2023-02-19T12:20:44;97648.50;;;9.28;66.05
47366;BME280;33105;47.964;7.982;2023-02-19T12:31:36;97652.63;;;9.60;66.60
47366;BME280;33105;47.964;7.982;2023-02-19T12:34:36;97656.22;;;9.42;67.37
47366;BME280;33105;47.964;7.982;2023-02-19T12:37:59;97658.88;;;9.19;66.77
47366;BME280;33105;47.964;7.982;2023-02-19T12:44:40;97662.09;;;9.58;66.23
47366;BME280;33105;47.964;7.982;2023-02-19T12:47:53;97662.88;;;9.46;67.31
47366;BME280;33105;47.964;7.982;2023-02-19T12:51:03;97659.09;;;9.47;67.72
47366;BME280;33105;47.964;7.982;2023-02-19T12:54:25;97662.88;;;9.46;66.98
47366;BME280;33105;47.964;7.982;2023-02-19T12:57:32;97647.63;;;9.69;64.29
47366;BME280;33105;47.964;7.982;2023-02-19T13:00:41;97635.19;;;9.61;63.98
47366;BME280;33105;47.964;7.982;2023-02-19T13:03:50;97643.25;;;9.68;65.02
47366;BME280;33105;47.964;7.982;2023-02-19T13:07:01;97637.78;;;9.68;63.84
47366;BME280;33105;47.964;7.982;2023-02-19T13:10:32;97640.66;;;9.73;63.64
47366;BME280;33105;47.964;7.982;2023-02-19T13:13:45;97652.03;;;9.70;65.18
47366;BME280;33105;47.964;7.982;2023-02-19T13:16:57;97644.91;;;9.69;65.38
47366;BME280;33105;47.964;7.982;2023-02-19T13:23:32;97631.91;;;9.41;65.54
47366;BME280;33105;47.964;7.982;2023-02-19T13:30:14;97643.84;;;9.70;66.18
47366;BME280;33105;47.964;7.982;2023-02-19T13:33:40;97646.47;;;9.76;63.88
47366;BME280;33105;47.964;7.982;2023-02-19T13:36:45;97643.78;;;10.00;64.50
47366;BME280;33105;47.964;7.982;2023-02-19T13:39:51;97639.00;;;9.95;63.62
47366;BME280;33105;47.964;7.982;2023-02-19T13:42:55;97637.09;;;9.72;63.62
47366;BME280;33105;47.964;7.982;2023-02-19T13:46:06;97640.66;;;9.73;62.66
47366;BME280;33105;47.964;7.982;2023-02-19T13:52:38;97630.53;;;9.50;63.22
47366;BME280;33105;47.964;7.982;2023-02-19T13:55:47;97632.84;;;9.65;63.75
47366;BME280;33105;47.964;7.982;2023-02-19T13:58:54;97631.28;;;9.69;62.95
47366;BME280;33105;47.964;7.982;2023-02-19T14:05:07;97642.00;;;9.40;63.55
47366;BME280;33105;47.964;7.982;2023-02-19T14:08:09;97640.53;;;9.26;64.23
47366;BME280;33105;47.964;7.982;2023-02-19T14:11:10;97637.78;;;9.14;64.11
47366;BME280;33105;47.964;7.982;2023-02-19T14:17:42;97636.28;;;9.30;63.56
47366;BME280;33105;47.964;7.982;2023-02-19T14:20:45;97638.19;;;9.00;64.17
47366;BME280;33105;47.964;7.982;2023-02-19T14:23:56;97633.63;;;9.12;63.43
47366;BME280;33105;47.964;7.982;2023-02-19T14:26:58;97631.59;;;9.07;63.28
47366;BME280;33105;47.964;7.982;2023-02-19T14:30:01;97637.16;;;8.82;63.71
47366;BME280;33105;47.964;7.982;2023-02-19T14:33:02;97630.50;;;8.78;63.73
47366;BME280;33105;47.964;7.982;2023-02-19T14:39:30;97635.28;;;8.83;65.03
47366;BME280;33105;47.964;7.982;2023-02-19T14:42:34;97641.19;;;8.80;64.92
47366;BME280;33105;47.964;7.982;2023-02-19T14:45:41;97645.34;;;8.82;64.79
47366;BME280;33105;47.964;7.982;2023-02-19T14:48:46;97657.13;;;8.95;64.04
47366;BME280;33105;47.964;7.982;2023-02-19T14:51:52;97656.16;;;8.89;63.50
47366;BME280;33105;47.964;7.982;2023-02-19T14:55:25;97653.47;;;9.01;63.29
47366;BME280;33105;47.964;7.982;2023-02-19T14:58:31;97656.50;;;8.93;63.95
47366;BME280;33105;47.964;7.982;2023-02-19T15:01:32;97663.63;;;8.94;63.32
47366;BME280;33105;47.964;7.982;2023-02-19T15:04:35;97662.19;;;8.91;62.98
47366;BME280;33105;47.964;7.982;2023-02-19T15:07:37;97660.94;;;8.75;64.33
47366;BME280;33105;47.964;7.982;2023-02-19T15:10:41;97672.66;;;8.58;63.27
47366;BME280;33105;47.964;7.982;2023-02-19T15:13:48;97678.06;;;8.64;65.08
47366;BME280;33105;47.964;7.982;2023-02-19T15:16:56;97676.38;;;8.63;65.41
47366;BME280;33105;47.964;7.982;2023-02-19T15:20:03;97676.44;;;8.57;66.10
47366;BME280;33105;47.964;7.982;2023-02-19T15:23:06;97675.78;;;8.61;65.91
47366;BME280;33105;47.964;7.982;2023-02-19T15:26:19;97676.81;;;8.42;65.91
47366;BME280;33105;47.964;7.982;2023-02-19T15:29:23;97674.41;;;8.34;66.71
47366;BME280;33105;47.964;7.982;2023-02-19T15:32:26;97676.44;;;8.57;66.74
47366;BME280;33105;47.964;7.982;2023-02-19T15:35:28;97671.22;;;8.55;67.15
47366;BME280;33105;47.964;7.982;2023-02-19T15:38:30;97688.84;;;8.52;66.97
47366;BME280;33105;47.964;7.982;2023-02-19T15:41:33;97687.56;;;8.37;67.28
47366;BME280;33105;47.964;7.982;2023-02-19T15:47:58;97693.25;;;8.53;67.88
47366;BME280;33105;47.964;7.982;2023-02-19T15:51:06;97688.22;;;8.32;67.64
47366;BME280;33105;47.964;7.982;2023-02-19T15:54:28;97697.94;;;8.22;67.71
47366;BME280;33105;47.964;7.982;2023-02-19T15:57:36;97695.44;;;8.20;66.82
47366;BME280;33105;47.964;7.982;2023-02-19T16:04:21;97706.47;;;8.25;68.12
47366;BME280;33105;47.964;7.982;2023-02-19T16:07:27;97709.72;;;8.15;68.19
47366;BME280;33105;47.964;7.982;2023-02-19T16:10:29;97717.66;;;8.42;67.92
47366;BME280;33105;47.964;7.982;2023-02-19T16:13:33;97720.97;;;8.19;68.21
47366;BME280;33105;47.964;7.982;2023-02-19T16:16:37;97722.16;;;8.30;67.89
47366;BME280;33105;47.964;7.982;2023-02-19T16:19:52;97726.38;;;8.26;67.79
47366;BME280;33105;47.964;7.982;2023-02-19T16:23:09;97727.19;;;8.33;68.64
47366;BME280;33105;47.964;7.982;2023-02-19T16:26:13;97723.47;;;7.96;69.20
47366;BME280;33105;47.964;7.982;2023-02-19T16:32:18;97737.44;;;8.06;69.45
47366;BME280;33105;47.964;7.982;2023-02-19T16:35:51;97749.25;;;7.93;69.16
47366;BME280;33105;47.964;7.982;2023-02-19T16:42:11;97741.44;;;8.03;67.81
47366;BME280;33105;47.964;7.982;2023-02-19T16:45:13;97743.75;;;8.00;68.88
47366;BME280;33105;47.964;7.982;2023-02-19T16:48:15;97748.81;;;7.96;69.01
47366;BME280;33105;47.964;7.982;2023-02-19T16:51:23;97745.09;;;7.91;68.64
47366;BME280;33105;47.964;7.982;2023-02-19T16:54:25;97754.69;;;7.93;68.33
47366;BME280;33105;47.964;7.982;2023-02-19T16:57:26;97756.25;;;8.07;68.14
47366;BME280;33105;47.964;7.982;2023-02-19T17:00:30;97754.22;;;8.03;67.67
47366;BME280;33105;47.964;7.982;2023-02-19T17:03:31;97757.38;;;8.00;68.20
47366;BME280;33105;47.964;7.982;2023-02-19T17:06:33;97764.19;;;7.84;68.94
47366;BME280;33105;47.964;7.982;2023-02-19T17:09:37;97762.53;;;7.83;68.63
47366;BME280;33105;47.964;7.982;2023-02-19T17:12:38;97762.69;;;7.88;68.88
47366;BME280;33105;47.964;7.982;2023-02-19T17:15:39;97764.81;;;7.86;68.77
47366;BME280;33105;47.964;7.982;2023-02-19T17:18:41;97753.75;;;7.81;68.87
47366;BME280;33105;47.964;7.982;2023-02-19T17:21:42;97741.47;;;7.97;69.04
47366;BME280;33105;47.964;7.982;2023-02-19T17:24:45;97735.56;;;7.75;69.00
47366;BME280;33105;47.964;7.982;2023-02-19T17:27:48;97750.41;;;7.79;68.06
47366;BME280;33105;47.964;7.982;2023-02-19T17:30:49;97758.34;;;7.80;67.69
47366;BME280;33105;47.964;7.982;2023-02-19T17:33:50;97743.16;;;7.98;67.84
47366;BME280;33105;47.964;7.982;2023-02-19T17:36:52;97749.59;;;8.03;66.94
47366;BME280;33105;47.964;7.982;2023-02-19T17:39:53;97766.38;;;8.00;67.08
47366;BME280;33105;47.964;7.982;2023-02-19T17:42:54;97757.53;;;8.05;67.30
47366;BME280;33105;47.964;7.982;2023-02-19T17:45:56;97768.16;;;7.88;67.30
47366;BME280;33105;47.964;7.982;2023-02-19T17:48:57;97772.53;;;7.89;66.94
47366;BME280;33105;47.964;7.982;2023-02-19T17:51:58;97755.66;;;8.05;66.51
47366;BME280;33105;47.964;7.982;2023-02-19T17:54:59;97769.69;;;8.02;66.09
47366;BME280;33105;47.964;7.982;2023-02-19T17:58:00;97770.13;;;7.99;65.70
47366;BME280;33105;47.964;7.982;2023-02-19T18:01:01;97765.09;;;8.03;65.71
47366;BME280;33105;47.964;7.982;2023-02-19T18:04:03;97767.63;;;7.98;66.82
47366;BME280;33105;47.964;7.982;2023-02-19T18:07:04;97776.19;;;8.01;66.64
47366;BME280;33105;47.964;7.982;2023-02-19T18:10:07;97767.31;;;8.12;66.37
47366;BME280;33105;47.964;7.982;2023-02-19T18:13:08;97771.91;;;7.87;66.14
47366;BME280;33105;47.964;7.982;2023-02-19T18:16:10;97772.75;;;7.88;65.78
47366;BME280;33105;47.964;7.982;2023-02-19T18:19:11;97774.31;;;8.02;65.46